Time;durP1;ratioP1;P1;durP2;ratioP2;P2;SDS_P1;SDS_P2;PMS_P1;PMS_P2;Temp;Humidity;BMP_temperature;BMP_pressure;BME280_temperature;BME280_humidity;BME280_pressure;Samples;Min_cycle;Max_cycle;Signal;HPM_P1;HPM_P2
2021/09/14 00:01:27;;;;;;;8.02;3.50;;;10.90;99.90;;;;;;5055563;28;20048;-90
2021/09/14 00:03:52;;;;;;;12.95;4.18;;;10.80;99.90;;;;;;5039866;28;20052;-91
2021/09/14 00:06:18;;;;;;;5.82;2.65;;;10.80;99.90;;;;;;5060341;28;20041;-90
2021/09/14 00:08:44;;;;;;;13.32;2.80;;;10.80;99.90;;;;;;5034562;28;20127;-90
2021/09/14 00:11:10;;;;;;;13.15;2.60;;;10.80;99.90;;;;;;5049099;28;20403;-90
2021/09/14 00:13:36;;;;;;;9.80;3.17;;;10.70;99.90;;;;;;5051636;28;20040;-90
2021/09/14 00:16:01;;;;;;;4.68;3.00;;;10.70;99.90;;;;;;5062587;28;20054;-90
2021/09/14 00:18:27;;;;;;;12.05;3.95;;;10.70;99.90;;;;;;5049893;28;20071;-90
2021/09/14 00:20:53;;;;;;;8.98;3.50;;;10.70;99.90;;;;;;5033663;28;20063;-90
2021/09/14 00:23:18;;;;;;;12.15;3.55;;;10.70;99.90;;;;;;5051264;28;20519;-90
2021/09/14 00:25:44;;;;;;;8.45;3.95;;;10.80;99.90;;;;;;5069784;28;20040;-90
2021/09/14 00:28:10;;;;;;;6.32;3.50;;;10.70;99.90;;;;;;5085764;28;20037;-89
2021/09/14 00:30:35;;;;;;;6.38;3.08;;;10.80;99.90;;;;;;5086547;28;20048;-89
2021/09/14 00:33:01;;;;;;;6.63;2.70;;;10.80;99.90;;;;;;5085838;28;20408;-89
2021/09/14 00:35:27;;;;;;;11.95;2.90;;;10.80;99.90;;;;;;5069453;28;20473;-89
2021/09/14 00:37:55;;;;;;;10.45;3.13;;;10.80;99.90;;;;;;5086497;28;20048;-88
2021/09/14 00:40:21;;;;;;;11.60;3.58;;;10.80;99.90;;;;;;5084108;28;20071;-89
2021/09/14 00:42:47;;;;;;;11.40;2.72;;;10.80;99.90;;;;;;5052669;28;20087;-89
2021/09/14 00:45:12;;;;;;;8.68;3.05;;;10.80;99.90;;;;;;5085619;28;20051;-89
2021/09/14 00:47:38;;;;;;;6.93;2.90;;;10.90;99.90;;;;;;5069009;28;20040;-89
2021/09/14 00:50:08;;;;;;;6.53;2.60;;;10.90;99.90;;;;;;5031751;28;20123;-89
2021/09/14 00:52:37;;;;;;;13.15;3.75;;;10.90;99.90;;;;;;5022352;28;20048;-89
2021/09/14 00:55:04;;;;;;;16.75;2.75;;;10.90;99.90;;;;;;5060823;28;20044;-89
2021/09/14 00:57:30;;;;;;;18.58;3.38;;;10.90;99.90;;;;;;5034939;28;20040;-89
2021/09/14 00:59:56;;;;;;;14.15;3.40;;;10.80;99.90;;;;;;5069248;28;20060;-89
2021/09/14 01:02:21;;;;;;;5.00;2.63;;;10.80;99.90;;;;;;5067820;28;20047;-88
2021/09/14 01:04:47;;;;;;;9.93;2.78;;;10.80;99.90;;;;;;5048879;28;20041;-88
2021/09/14 01:07:13;;;;;;;11.02;2.83;;;10.80;99.90;;;;;;5046998;28;20523;-89
2021/09/14 01:09:40;;;;;;;8.98;3.00;;;10.80;99.90;;;;;;5080464;28;20118;-88
2021/09/14 01:12:06;;;;;;;9.60;2.90;;;10.80;99.90;;;;;;5044411;28;20048;-89
2021/09/14 01:14:32;;;;;;;13.82;2.97;;;10.70;99.90;;;;;;5032879;28;20403;-88
2021/09/14 01:16:58;;;;;;;7.03;2.83;;;10.70;99.90;;;;;;5011874;28;20051;-88
2021/09/14 01:19:23;;;;;;;8.50;3.05;;;10.70;99.90;;;;;;5031132;28;20057;-88
2021/09/14 01:21:49;;;;;;;9.57;2.92;;;10.70;99.90;;;;;;5043537;28;20048;-88
2021/09/14 01:24:15;;;;;;;11.10;2.83;;;10.70;99.90;;;;;;5030415;28;20400;-88
2021/09/14 01:26:41;;;;;;;6.88;3.00;;;10.60;99.90;;;;;;5068782;28;20037;-87
2021/09/14 01:29:11;;;;;;;8.15;2.72;;;10.60;99.90;;;;;;5051454;28;20106;-88
2021/09/14 01:31:38;;;;;;;10.57;3.00;;;10.50;99.90;;;;;;5054695;28;20040;-88
2021/09/14 01:34:05;;;;;;;15.65;3.65;;;10.50;99.90;;;;;;5054209;28;20074;-90
2021/09/14 01:36:32;;;;;;;9.38;3.13;;;10.40;99.90;;;;;;5076641;28;20066;-88
2021/09/14 01:38:57;;;;;;;9.15;2.63;;;10.40;99.90;;;;;;5053508;28;20062;-89
2021/09/14 01:41:23;;;;;;;11.23;3.20;;;10.40;99.90;;;;;;5064565;28;20044;-89
2021/09/14 01:43:50;;;;;;;10.85;3.45;;;10.30;99.90;;;;;;5044944;28;20055;-89
2021/09/14 01:46:16;;;;;;;13.77;3.83;;;10.30;99.90;;;;;;5077766;28;20062;-88
2021/09/14 01:48:41;;;;;;;14.07;3.65;;;10.40;99.90;;;;;;5057577;28;20045;-89
2021/09/14 01:51:07;;;;;;;10.35;4.05;;;10.40;99.90;;;;;;5075321;28;20049;-89
2021/09/14 01:53:33;;;;;;;9.65;4.43;;;10.40;99.90;;;;;;5080483;28;20062;-89
2021/09/14 01:56:03;;;;;;;20.05;5.30;;;10.30;99.90;;;;;;5074608;28;20093;-89
2021/09/14 01:58:29;;;;;;;;;;;10.40;99.90;;;;;;5058680;28;20060;-89
2021/09/14 02:01:10;;;;;;;10.55;3.97;;;10.30;99.90;;;;;;5079743;28;19929;-88
2021/09/14 02:03:56;;;;;;;10.35;5.00;;;10.30;99.90;;;;;;5053452;28;20040;-87
2021/09/14 02:44:44;;;;;;;15.75;5.78;;;10.30;99.90;;;;;;5086566;28;20083;-91
2021/09/14 03:00:22;;;;;;;9.38;4.63;;;10.30;99.90;;;;;;5071103;28;20078;-88
2021/09/14 03:02:49;;;;;;;12.85;4.18;;;10.40;99.90;;;;;;5071647;28;20048;-89
2021/09/14 03:05:15;;;;;;;12.65;5.38;;;10.40;99.90;;;;;;5071207;28;20114;-89
2021/09/14 03:07:41;;;;;;;15.70;5.20;;;10.40;99.90;;;;;;5055519;28;20049;-88
2021/09/14 03:10:07;;;;;;;11.50;4.25;;;10.50;99.90;;;;;;5061282;28;20098;-89
2021/09/14 03:12:33;;;;;;;10.77;3.90;;;10.50;99.90;;;;;;5071261;28;20119;-89
2021/09/14 03:14:59;;;;;;;14.50;4.78;;;10.60;99.90;;;;;;5088776;28;20098;-88
2021/09/14 03:17:24;;;;;;;15.75;4.38;;;10.70;99.90;;;;;;5088291;28;20067;-88
2021/09/14 03:19:50;;;;;;;10.90;4.10;;;10.80;99.90;;;;;;5085864;28;20043;-89
2021/09/14 03:22:16;;;;;;;13.25;4.90;;;10.80;99.90;;;;;;5054496;28;20496;-89
2021/09/14 03:24:42;;;;;;;12.65;4.00;;;10.90;99.90;;;;;;5071481;28;20044;-89
2021/09/14 03:27:07;;;;;;;10.65;4.05;;;10.90;99.90;;;;;;5071459;28;20142;-89
2021/09/14 03:29:33;;;;;;;18.02;4.35;;;11.00;99.90;;;;;;5070356;28;20052;-89
2021/09/14 03:31:59;;;;;;;18.35;5.18;;;11.00;99.90;;;;;;5087728;28;20036;-89
2021/09/14 03:34:24;;;;;;;11.52;4.22;;;11.10;99.90;;;;;;5070779;28;20083;-89
2021/09/14 03:36:50;;;;;;;9.13;4.32;;;11.20;99.90;;;;;;5072018;28;20036;-91
2021/09/14 03:39:16;;;;;;;12.93;4.78;;;11.20;99.90;;;;;;5055083;28;20041;-90
2021/09/14 03:41:42;;;;;;;14.13;4.40;;;11.30;99.90;;;;;;5058048;28;20444;-90
2021/09/14 03:44:07;;;;;;;16.83;4.82;;;11.40;99.90;;;;;;5051700;28;20052;-90
2021/09/14 03:46:33;;;;;;;13.63;4.70;;;11.40;99.90;;;;;;5052842;28;20045;-90
2021/09/14 03:49:00;;;;;;;9.38;4.43;;;11.50;99.90;;;;;;5050399;28;20405;-90
2021/09/14 03:51:25;;;;;;;13.27;4.18;;;11.50;99.90;;;;;;5086852;28;20064;-89
2021/09/14 03:53:51;;;;;;;14.40;4.50;;;11.60;99.90;;;;;;5070688;28;20053;-91
2021/09/14 03:56:17;;;;;;;11.57;4.18;;;11.70;99.90;;;;;;5066722;28;20828;-90
2021/09/14 03:58:42;;;;;;;7.10;3.63;;;11.80;99.90;;;;;;5071278;28;20403;-91
2021/09/14 04:01:08;;;;;;;12.25;4.60;;;11.90;99.90;;;;;;5071501;28;20042;-90
2021/09/14 04:11:14;;;;;;;12.10;3.80;;;12.00;99.90;;;;;;5085501;28;20504;-93
2021/09/14 04:13:40;;;;;;;12.77;4.47;;;12.10;99.90;;;;;;5055059;28;20048;-89
2021/09/14 04:16:06;;;;;;;20.15;4.22;;;12.20;99.90;;;;;;5071374;28;20048;-91
2021/09/14 04:18:32;;;;;;;12.90;4.22;;;12.30;99.90;;;;;;5054150;28;20690;-89
2021/09/14 04:20:57;;;;;;;16.35;4.50;;;12.30;99.90;;;;;;5087062;28;20048;-89
2021/09/14 04:23:23;;;;;;;11.80;3.65;;;12.40;99.90;;;;;;5070146;28;20480;-89
2021/09/14 04:25:49;;;;;;;14.88;3.88;;;12.40;99.90;;;;;;5070486;28;20047;-89
2021/09/14 04:28:14;;;;;;;27.23;4.93;;;12.50;99.90;;;;;;5086362;28;20052;-90
2021/09/14 04:30:40;;;;;;;43.28;5.82;;;12.50;99.90;;;;;;5069663;28;20040;-89
2021/09/14 04:33:06;;;;;;;18.45;5.40;;;12.60;99.90;;;;;;5053541;28;20055;-89
2021/09/14 04:35:32;;;;;;;13.88;4.85;;;12.60;99.90;;;;;;5069809;28;20052;-89
2021/09/14 04:37:57;;;;;;;15.57;4.63;;;12.70;99.90;;;;;;5070821;28;20060;-89
2021/09/14 04:40:23;;;;;;;13.52;4.38;;;12.70;99.90;;;;;;5054047;28;20132;-89
2021/09/14 04:42:49;;;;;;;10.00;4.57;;;12.80;99.90;;;;;;5070498;28;20045;-90
2021/09/14 04:45:15;;;;;;;11.45;4.97;;;12.80;99.90;;;;;;5070796;28;20102;-91
2021/09/14 04:47:41;;;;;;;13.55;4.60;;;12.80;99.90;;;;;;5060895;28;20036;-90
2021/09/14 04:50:07;;;;;;;10.90;4.85;;;12.90;99.90;;;;;;5053913;28;20087;-90
2021/09/14 04:52:33;;;;;;;26.65;5.40;;;12.80;99.90;;;;;;5065502;28;20411;-90
2021/09/14 04:54:58;;;;;;;8.77;4.00;;;12.90;99.90;;;;;;5065880;28;20040;-90
2021/09/14 04:57:24;;;;;;;16.67;4.32;;;12.90;99.90;;;;;;5083600;28;20052;-89
2021/09/14 04:59:51;;;;;;;11.98;3.67;;;13.00;99.90;;;;;;5052764;28;20404;-90
2021/09/14 05:02:16;;;;;;;14.57;3.83;;;13.00;99.90;;;;;;5088254;28;20046;-91
2021/09/14 05:04:42;;;;;;;15.48;3.15;;;13.00;99.90;;;;;;5088080;28;20040;-89
2021/09/14 05:07:08;;;;;;;19.45;4.43;;;13.10;99.90;;;;;;5030968;28;20503;-89
2021/09/14 05:09:33;;;;;;;12.20;3.67;;;13.10;99.90;;;;;;5079365;28;20424;-90
2021/09/14 05:11:59;;;;;;;9.95;3.42;;;13.00;99.90;;;;;;5063429;28;20123;-89
2021/09/14 05:14:25;;;;;;;15.88;4.50;;;13.10;99.90;;;;;;5063454;28;20043;-90
2021/09/14 05:16:50;;;;;;;11.35;3.40;;;13.00;99.90;;;;;;5072917;28;20082;-90
2021/09/14 05:19:23;;;;;;;5.10;3.10;;;13.00;99.90;;;;;;5091096;28;20044;-89
2021/09/14 05:21:49;;;;;;;7.32;3.30;;;12.90;99.90;;;;;;5068566;28;20040;-90
2021/09/14 05:24:14;;;;;;;7.45;3.60;;;12.80;99.90;;;;;;5089658;28;20044;-91
2021/09/14 05:26:41;;;;;;;11.20;3.50;;;12.80;99.90;;;;;;5088842;28;20483;-90
2021/09/14 05:29:07;;;;;;;7.68;3.97;;;12.80;99.90;;;;;;5055582;28;20081;-90
2021/09/14 05:31:34;;;;;;;9.13;3.92;;;12.70;99.90;;;;;;5070866;28;20067;-90
2021/09/14 05:34:01;;;;;;;15.25;3.88;;;12.60;99.90;;;;;;5087169;28;20052;-90
2021/09/14 05:36:27;;;;;;;10.15;4.35;;;12.60;99.90;;;;;;5089584;28;20433;-89
2021/09/14 05:38:53;;;;;;;13.57;4.63;;;12.50;99.90;;;;;;5053265;28;20135;-90
2021/09/14 05:41:19;;;;;;;11.82;5.32;;;12.50;99.90;;;;;;5083647;28;20054;-89
2021/09/14 05:43:44;;;;;;;13.00;5.30;;;12.50;99.90;;;;;;5019972;28;20125;-89
2021/09/14 05:46:10;;;;;;;13.68;4.97;;;12.50;99.90;;;;;;5049258;28;20044;-90
2021/09/14 05:48:36;;;;;;;10.82;4.72;;;12.40;99.90;;;;;;5072710;28;20039;-90
2021/09/14 05:51:02;;;;;;;14.88;5.57;;;12.50;99.90;;;;;;5069508;28;20052;-91
2021/09/14 05:53:28;;;;;;;15.63;5.40;;;12.40;99.90;;;;;;5086289;28;20131;-89
2021/09/14 05:55:54;;;;;;;32.78;5.63;;;12.40;99.90;;;;;;5053216;28;20140;-91
2021/09/14 05:58:19;;;;;;;29.20;6.07;;;12.40;99.90;;;;;;5016795;28;20464;-89
2021/09/14 06:00:45;;;;;;;7.93;4.55;;;12.50;99.90;;;;;;5068667;28;20045;-90
2021/09/14 06:03:11;;;;;;;11.90;4.68;;;12.50;99.90;;;;;;5051718;28;20048;-89
2021/09/14 06:05:36;;;;;;;11.20;4.38;;;12.50;99.90;;;;;;5034595;28;20044;-89
2021/09/14 06:08:02;;;;;;;12.48;4.60;;;12.50;99.90;;;;;;5040827;28;20052;-89
2021/09/14 06:10:28;;;;;;;16.50;4.88;;;12.50;99.90;;;;;;5034415;28;20048;-90
2021/09/14 06:12:53;;;;;;;14.65;4.07;;;12.60;99.90;;;;;;5067920;28;20055;-89
2021/09/14 06:15:19;;;;;;;20.80;4.05;;;12.70;99.90;;;;;;5051931;28;20072;-89
2021/09/14 06:17:45;;;;;;;9.93;3.42;;;12.70;99.90;;;;;;5020487;28;20488;-88
2021/09/14 06:20:11;;;;;;;8.77;3.78;;;12.70;99.90;;;;;;5071946;28;20048;-88
2021/09/14 06:22:37;;;;;;;9.48;3.78;;;12.90;99.90;;;;;;5053694;28;20047;-89
2021/09/14 06:25:03;;;;;;;13.48;3.08;;;12.90;99.90;;;;;;5088602;28;20053;-89
2021/09/14 06:27:29;;;;;;;15.68;3.53;;;13.00;99.90;;;;;;5070775;28;20040;-88
2021/09/14 06:29:55;;;;;;;25.45;3.97;;;13.00;99.90;;;;;;5071765;28;20055;-89
2021/09/14 06:32:20;;;;;;;13.38;3.25;;;13.10;99.90;;;;;;5070830;28;20052;-89
2021/09/14 06:34:46;;;;;;;9.18;3.10;;;13.10;99.90;;;;;;5085204;28;20097;-89
2021/09/14 06:37:12;;;;;;;11.95;2.80;;;13.20;99.90;;;;;;5088440;28;20056;-88
2021/09/14 06:39:37;;;;;;;6.68;3.25;;;13.30;99.90;;;;;;5054509;28;20088;-90
2021/09/14 06:42:04;;;;;;;16.50;3.30;;;13.30;99.90;;;;;;5054826;28;20048;-89
2021/09/14 06:44:31;;;;;;;8.65;3.30;;;13.40;99.90;;;;;;5071241;28;20060;-89
2021/09/14 06:46:57;;;;;;;6.88;2.92;;;13.40;99.90;;;;;;5054948;28;20052;-89
2021/09/14 06:49:23;;;;;;;16.98;4.07;;;13.50;99.90;;;;;;5056330;28;20040;-89
2021/09/14 06:51:49;;;;;;;7.65;3.15;;;13.60;99.90;;;;;;5055213;28;20336;-89
2021/09/14 06:54:15;;;;;;;6.13;2.95;;;13.60;99.90;;;;;;5055876;28;20390;-89
2021/09/14 06:56:41;;;;;;;8.50;3.08;;;13.60;99.90;;;;;;5071942;28;20044;-88
2021/09/14 06:59:06;;;;;;;8.77;2.90;;;13.60;99.90;;;;;;5039099;28;20504;-89
2021/09/14 07:01:32;;;;;;;6.13;3.25;;;13.60;99.90;;;;;;5041533;28;20045;-89
2021/09/14 07:03:58;;;;;;;9.88;3.85;;;13.70;99.90;;;;;;5022044;28;20295;-90
2021/09/14 07:06:23;;;;;;;9.32;3.53;;;13.80;99.90;;;;;;5038921;28;20063;-90
2021/09/14 07:08:49;;;;;;;22.70;4.13;;;13.80;99.90;;;;;;5054842;28;20123;-90
2021/09/14 07:11:15;;;;;;;9.30;3.70;;;13.80;99.90;;;;;;5054443;28;20036;-89
2021/09/14 07:13:42;;;;;;;15.15;3.83;;;13.90;99.90;;;;;;5035922;28;20049;-89
2021/09/14 07:16:08;;;;;;;8.98;3.80;;;13.90;99.90;;;;;;5055564;28;20500;-89
2021/09/14 07:18:38;;;;;;;15.35;4.57;;;13.90;99.90;;;;;;5066146;28;20048;-89
2021/09/14 07:21:04;;;;;;;9.45;3.63;;;14.00;99.90;;;;;;5046922;28;20076;-88
2021/09/14 07:23:30;;;;;;;10.15;3.75;;;14.00;99.90;;;;;;5055054;28;20059;-91
2021/09/14 07:25:56;;;;;;;7.45;3.58;;;14.10;99.90;;;;;;5054865;28;20048;-89
2021/09/14 07:28:21;;;;;;;7.40;3.58;;;14.10;99.90;;;;;;5033855;28;20052;-90
2021/09/14 07:30:47;;;;;;;6.32;3.40;;;14.10;99.90;;;;;;5059906;28;20543;-89
2021/09/14 07:33:13;;;;;;;23.50;4.93;;;14.10;99.90;;;;;;5074502;28;20059;-88
2021/09/14 07:35:39;;;;;;;11.30;3.90;;;14.20;99.90;;;;;;5028677;28;20078;-88
2021/09/14 07:38:06;;;;;;;17.92;4.13;;;14.20;99.90;;;;;;5080091;28;20091;-89
2021/09/14 07:40:32;;;;;;;25.08;6.57;;;14.20;99.90;;;;;;5043811;28;20048;-91
2021/09/14 07:42:58;;;;;;;6.03;3.67;;;14.30;99.90;;;;;;5029637;28;20056;-89
2021/09/14 07:45:24;;;;;;;11.95;4.30;;;14.40;99.90;;;;;;5056411;28;20040;-88
2021/09/14 07:47:49;;;;;;;9.65;3.75;;;14.40;99.90;;;;;;5055582;28;20127;-88
2021/09/14 07:50:15;;;;;;;13.43;4.45;;;14.40;99.90;;;;;;5042113;28;20083;-91
2021/09/14 07:52:41;;;;;;;32.13;4.97;;;14.50;99.90;;;;;;5032907;28;20531;-91
2021/09/14 07:55:08;;;;;;;10.07;4.53;;;14.50;99.90;;;;;;5061740;28;20079;-90
2021/09/14 07:57:34;;;;;;;6.50;3.70;;;14.50;99.90;;;;;;5057774;28;20094;-91
2021/09/14 08:00:00;;;;;;;11.15;3.90;;;14.60;99.90;;;;;;5068817;28;20079;-91
2021/09/14 08:02:25;;;;;;;10.57;3.97;;;14.70;99.90;;;;;;5057022;28;20058;-89
2021/09/14 08:04:51;;;;;;;9.55;3.85;;;14.70;99.90;;;;;;5084483;28;20040;-89
2021/09/14 08:07:17;;;;;;;7.38;3.72;;;14.80;99.90;;;;;;5061425;28;20075;-90
2021/09/14 08:09:43;;;;;;;6.82;3.38;;;14.90;99.90;;;;;;5055576;28;20109;-88
2021/09/14 08:12:09;;;;;;;12.48;3.85;;;14.90;99.90;;;;;;5057005;28;20052;-92
2021/09/14 08:14:35;;;;;;;20.63;4.18;;;15.00;99.90;;;;;;5108005;28;20584;-91
2021/09/14 08:17:01;;;;;;;11.82;3.88;;;15.00;99.90;;;;;;5091198;28;20086;-91
2021/09/14 08:19:26;;;;;;;12.55;4.55;;;15.10;99.90;;;;;;5074496;28;20501;-92
2021/09/14 08:21:53;;;;;;;10.88;4.75;;;15.20;99.90;;;;;;5040653;28;20044;-91
2021/09/14 08:24:19;;;;;;;11.32;4.97;;;15.20;99.90;;;;;;5075163;28;20055;-93
2021/09/14 08:26:46;;;;;;;9.88;4.47;;;15.30;99.90;;;;;;5080089;28;20055;-93
2021/09/14 08:29:11;;;;;;;9.73;4.25;;;15.30;99.90;;;;;;5058581;28;20062;-94
2021/09/14 08:31:37;;;;;;;11.70;4.20;;;15.40;99.90;;;;;;5033088;28;20496;-94
2021/09/14 08:34:04;;;;;;;10.40;4.63;;;15.40;99.90;;;;;;5079051;28;20040;-93
2021/09/14 08:36:30;;;;;;;12.02;4.57;;;15.40;99.90;;;;;;5042980;28;20071;-93
2021/09/14 08:38:55;;;;;;;15.38;5.82;;;15.60;99.90;;;;;;5097455;28;20477;-94
2021/09/14 08:41:22;;;;;;;7.07;4.55;;;15.60;99.90;;;;;;5048385;28;20165;-93
2021/09/14 08:43:50;;;;;;;16.83;5.32;;;15.70;99.90;;;;;;5074126;28;20043;-93
2021/09/14 08:46:18;;;;;;;17.90;5.35;;;15.80;99.90;;;;;;5041489;28;20055;-91
2021/09/14 08:48:45;;;;;;;18.67;5.43;;;15.90;99.90;;;;;;5073801;28;20040;-91
2021/09/14 08:51:11;;;;;;;12.55;6.38;;;15.90;99.90;;;;;;5068888;28;20048;-92
2021/09/14 08:53:37;;;;;;;10.75;5.18;;;16.00;99.90;;;;;;5058453;28;20119;-93
2021/09/14 08:56:05;;;;;;;15.65;6.22;;;16.00;99.90;;;;;;5073256;28;20048;-93
2021/09/14 08:58:31;;;;;;;11.48;5.40;;;16.10;99.90;;;;;;5073757;28;20048;-92
2021/09/14 09:00:57;;;;;;;14.63;5.72;;;16.20;99.90;;;;;;5105303;28;20834;-92
2021/09/14 09:03:28;;;;;;;14.10;6.28;;;16.20;99.90;;;;;;5056216;28;20046;-93
2021/09/14 09:05:54;;;;;;;12.07;5.40;;;16.30;99.90;;;;;;5062162;28;20058;-92
2021/09/14 09:08:27;;;;;;;8.73;6.18;;;16.40;99.90;;;;;;5065199;28;20117;-91
2021/09/14 09:11:11;;;;;;;9.57;6.22;;;16.50;99.90;;;;;;5054740;28;20048;-92
2021/09/14 09:13:43;;;;;;;8.90;5.70;;;16.60;99.90;;;;;;5090213;28;20601;-92
2021/09/14 09:16:21;;;;;;;9.43;5.53;;;16.70;99.90;;;;;;5104646;28;20040;-93
2021/09/14 09:18:51;;;;;;;18.55;6.00;;;16.80;99.90;;;;;;5081336;28;20044;-92
2021/09/14 09:21:16;;;;;;;15.73;6.40;;;16.90;99.90;;;;;;5086350;28;20120;-92
2021/09/14 09:23:42;;;;;;;14.93;6.85;;;17.00;99.90;;;;;;5090161;28;20091;-91
2021/09/14 09:26:09;;;;;;;11.00;5.82;;;17.10;99.90;;;;;;5056940;28;20181;-92
2021/09/14 09:28:36;;;;;;;9.32;6.15;;;17.20;99.90;;;;;;5072643;28;20047;-92
2021/09/14 09:31:09;;;;;;;12.45;5.93;;;17.30;99.90;;;;;;5055719;28;20035;-92
2021/09/14 09:33:35;;;;;;;11.77;6.38;;;17.30;99.90;;;;;;5051689;28;20511;-92
2021/09/14 09:36:09;;;;;;;14.02;6.15;;;17.40;99.90;;;;;;5056049;28;20044;-92
2021/09/14 09:38:51;;;;;;;10.77;6.63;;;17.50;99.90;;;;;;5076403;28;20055;-93
2021/09/14 09:41:18;;;;;;;12.68;6.43;;;17.70;99.90;;;;;;5056834;28;20089;-92
2021/09/14 09:43:45;;;;;;;12.73;6.50;;;17.80;99.90;;;;;;5073212;28;20044;-94
2021/09/14 09:46:18;;;;;;;13.90;7.97;;;17.90;99.90;;;;;;5056998;28;20052;-93
2021/09/14 09:48:44;;;;;;;14.23;7.07;;;17.90;99.90;;;;;;5056489;28;20044;-93
2021/09/14 09:51:10;;;;;;;14.00;6.53;;;18.10;99.90;;;;;;5058595;28;20059;-92
2021/09/14 09:53:37;;;;;;;10.75;7.03;;;18.10;99.90;;;;;;5071801;28;20573;-94
2021/09/14 09:56:05;;;;;;;18.17;7.43;;;18.30;99.90;;;;;;5075912;28;20871;-93
2021/09/14 09:58:31;;;;;;;15.00;6.75;;;18.30;99.90;;;;;;5060242;28;20052;-92
2021/09/14 10:01:16;;;;;;;12.80;7.28;;;18.40;99.90;;;;;;5076987;28;20051;-92
2021/09/14 10:04:06;;;;;;;12.70;7.30;;;18.40;99.90;;;;;;5060629;28;20052;-93
2021/09/14 10:06:38;;;;;;;14.75;7.28;;;18.50;99.90;;;;;;5062521;28;20056;-93
2021/09/14 10:09:05;;;;;;;12.23;7.20;;;18.50;99.90;;;;;;5057448;28;20048;-91
2021/09/14 10:11:33;;;;;;;12.40;7.65;;;18.50;99.90;;;;;;5093794;28;20100;-92
2021/09/14 10:14:04;;;;;;;7.93;6.05;;;18.70;99.90;;;;;;5076547;28;20048;-93
2021/09/14 10:16:31;;;;;;;12.80;6.10;;;18.90;99.90;;;;;;5080071;28;20048;-93
2021/09/14 10:19:11;;;;;;;13.63;7.53;;;19.00;99.90;;;;;;5076340;28;20139;-92
2021/09/14 10:21:37;;;;;;;;;;;19.20;99.90;;;;;;5080370;28;20063;-90
2021/09/14 10:24:03;;;;;;;10.70;6.10;;;19.30;99.90;;;;;;5075505;28;20364;-90
2021/09/14 10:26:35;;;;;;;12.07;6.80;;;19.40;99.90;;;;;;5059435;28;20109;-90
2021/09/14 10:29:13;;;;;;;9.68;7.25;;;19.50;99.90;;;;;;5109388;27;20051;-88
2021/09/14 10:31:39;;;;;;;9.93;6.72;;;19.50;99.90;;;;;;5063953;28;20044;-89
2021/09/14 10:34:07;;;;;;;12.48;6.28;;;19.60;99.90;;;;;;5043059;28;20041;-88
2021/09/14 10:36:35;;;;;;;9.82;6.07;;;19.60;99.90;;;;;;5083521;28;20384;-90
2021/09/14 10:39:03;;;;;;;10.43;6.68;;;19.60;99.90;;;;;;5064344;28;20048;-90
2021/09/14 10:41:40;;;;;;;12.30;6.20;;;19.50;99.90;;;;;;5064599;28;20052;-91
2021/09/14 10:44:09;;;;;;;9.25;6.18;;;19.60;99.90;;;;;;5073022;28;20689;-90
2021/09/14 10:46:36;;;;;;;10.85;7.00;;;19.70;99.90;;;;;;5059981;28;20105;-90
2021/09/14 10:49:15;;;;;;;13.88;6.82;;;19.80;99.90;;;;;;5047955;28;20551;-91
2021/09/14 10:51:41;;;;;;;14.55;6.90;;;19.90;99.90;;;;;;5075692;28;20052;-90
2021/09/14 10:54:18;;;;;;;10.23;6.10;;;19.90;99.90;;;;;;5075212;28;20093;-90
2021/09/14 10:56:48;;;;;;;13.52;6.68;;;20.00;99.90;;;;;;5051630;28;20069;-91
2021/09/14 10:59:19;;;;;;;8.57;6.18;;;20.00;99.90;;;;;;5059342;28;20044;-93
2021/09/14 11:01:47;;;;;;;6.63;5.82;;;20.00;99.90;;;;;;5046856;28;20074;-89
2021/09/14 11:04:13;;;;;;;9.85;5.80;;;20.10;99.90;;;;;;5085249;28;20667;-93
2021/09/14 11:06:39;;;;;;;18.77;6.25;;;20.20;99.90;;;;;;5100585;28;20036;-94
2021/09/14 11:09:06;;;;;;;7.80;5.82;;;20.30;99.90;;;;;;5063667;28;20626;-93
2021/09/14 11:11:32;;;;;;;11.35;6.50;;;20.30;99.90;;;;;;5086678;28;20040;-93
2021/09/14 11:13:58;;;;;;;11.02;5.95;;;20.40;99.90;;;;;;5074196;28;20051;-94
2021/09/14 11:16:24;;;;;;;9.52;5.47;;;20.50;99.90;;;;;;5058506;28;20040;-93
2021/09/14 11:18:51;;;;;;;7.15;5.25;;;20.60;99.90;;;;;;5059304;28;20129;-93
2021/09/14 11:21:19;;;;;;;7.10;5.20;;;20.70;99.90;;;;;;5074655;28;20040;-93
2021/09/14 11:23:47;;;;;;;7.35;4.43;;;20.90;99.90;;;;;;5058965;28;20044;-93
2021/09/14 11:26:18;;;;;;;9.88;5.90;;;21.00;99.90;;;;;;5074971;28;20078;-93
2021/09/14 11:29:01;;;;;;;6.95;5.05;;;21.20;99.90;;;;;;5059037;28;20047;-93
2021/09/14 11:31:31;;;;;;;12.70;7.18;;;21.40;99.90;;;;;;5075038;28;20050;-93
2021/09/14 11:33:58;;;;;;;8.02;5.05;;;21.50;99.90;;;;;;5075147;28;20062;-95
2021/09/14 11:36:25;;;;;;;9.45;4.78;;;21.70;99.90;;;;;;5075148;28;20126;-94
2021/09/14 11:39:04;;;;;;;6.20;4.45;;;21.70;99.90;;;;;;5051228;28;20123;-93
2021/09/14 11:41:37;;;;;;;5.88;4.47;;;21.90;99.90;;;;;;5070219;28;20044;-93
2021/09/14 11:44:05;;;;;;;5.57;4.68;;;22.00;99.90;;;;;;5098884;28;20119;-93
2021/09/14 11:46:31;;;;;;;11.43;5.40;;;22.10;99.90;;;;;;5043255;28;20109;-92
2021/09/14 11:48:59;;;;;;;8.50;5.15;;;22.10;99.90;;;;;;5075084;28;20425;-92
2021/09/14 11:51:36;;;;;;;7.15;4.43;;;22.10;99.90;;;;;;5057761;28;20052;-92
2021/09/14 11:54:01;;;;;;;7.07;4.68;;;22.10;99.90;;;;;;5065722;28;20105;-92
2021/09/14 11:56:27;;;;;;;8.32;4.90;;;22.00;99.90;;;;;;5077461;28;20052;-92
2021/09/14 11:58:53;;;;;;;7.95;4.50;;;21.80;99.90;;;;;;5046643;28;20113;-93
2021/09/14 12:01:20;;;;;;;8.57;4.90;;;21.80;99.90;;;;;;5086735;28;20121;-93
2021/09/14 12:03:48;;;;;;;4.93;4.43;;;21.80;99.90;;;;;;5037819;28;20048;-92
2021/09/14 12:06:41;;;;;;;9.88;4.70;;;21.90;99.90;;;;;;5057374;28;20399;-93
2021/09/14 12:09:10;;;;;;;11.20;4.78;;;22.10;99.90;;;;;;5053564;28;20059;-93
2021/09/14 12:11:41;;;;;;;12.82;4.70;;;22.30;99.90;;;;;;5091234;28;20079;-93
2021/09/14 12:14:12;;;;;;;6.35;4.20;;;22.40;99.90;;;;;;5057726;28;20498;-93
2021/09/14 12:16:40;;;;;;;8.40;4.97;;;22.60;99.90;;;;;;5073836;28;20093;-92
2021/09/14 12:19:07;;;;;;;11.32;4.63;;;22.60;99.90;;;;;;5057111;28;20118;-93
2021/09/14 12:21:33;;;;;;;5.97;4.20;;;22.80;99.90;;;;;;5057117;28;20523;-92
2021/09/14 12:23:59;;;;;;;10.98;4.68;;;22.80;99.90;;;;;;5073719;28;20055;-93
2021/09/14 12:26:37;;;;;;;8.77;4.85;;;22.80;99.90;;;;;;5090547;28;20643;-93
2021/09/14 12:29:03;;;;;;;6.13;4.07;;;22.90;99.90;;;;;;5057292;28;20087;-93
2021/09/14 12:31:29;;;;;;;7.88;4.68;;;23.10;99.90;;;;;;5045680;28;20044;-94
2021/09/14 12:33:55;;;;;;;8.27;4.82;;;23.10;99.90;;;;;;5067466;28;20042;-93
2021/09/14 12:36:21;;;;;;;9.48;4.82;;;23.20;99.90;;;;;;5073371;28;20048;-93
2021/09/14 12:38:48;;;;;;;8.05;4.28;;;23.30;99.90;;;;;;5051221;28;20458;-93
2021/09/14 12:41:16;;;;;;;10.50;4.95;;;23.30;99.90;;;;;;5075135;28;20082;-93
2021/09/14 12:43:49;;;;;;;7.47;4.47;;;23.50;99.90;;;;;;5076744;28;20068;-93
2021/09/14 12:46:16;;;;;;;6.82;4.13;;;23.70;99.90;;;;;;5057716;28;20071;-93
2021/09/14 12:48:42;;;;;;;10.10;4.15;;;23.90;99.90;;;;;;5059190;28;20501;-92
2021/09/14 12:51:08;;;;;;;6.70;4.90;;;24.00;99.90;;;;;;5062471;28;20483;-93
2021/09/14 12:53:35;;;;;;;5.43;3.67;;;24.20;99.90;;;;;;5040717;28;20062;-94
2021/09/14 12:56:01;;;;;;;4.47;3.75;;;24.40;99.90;;;;;;5073074;28;20052;-94
2021/09/14 12:58:27;;;;;;;6.15;3.90;;;24.60;99.90;;;;;;5076410;28;20801;-93
2021/09/14 13:00:53;;;;;;;8.13;4.72;;;24.60;99.90;;;;;;5056829;28;20449;-93
2021/09/14 13:03:18;;;;;;;7.13;4.55;;;24.60;99.90;;;;;;5036161;28;20110;-93
2021/09/14 13:05:44;;;;;;;7.22;4.65;;;24.70;99.90;;;;;;5090308;28;20051;-93
2021/09/14 13:08:10;;;;;;;9.45;4.13;;;24.90;99.90;;;;;;5074053;28;20044;-92
2021/09/14 13:10:36;;;;;;;12.55;4.00;;;24.80;99.90;;;;;;5055466;28;20618;-93
2021/09/14 13:18:35;;;;;;;6.60;4.25;;;25.20;99.90;;;;;;5097853;28;20070;-92
2021/09/14 13:21:01;;;;;;;10.93;4.28;;;25.20;99.90;;;;;;5089120;28;20420;-93
2021/09/14 13:23:27;;;;;;;9.75;4.70;;;25.40;99.90;;;;;;5055374;28;20051;-93
2021/09/14 13:25:53;;;;;;;4.93;4.13;;;25.50;99.90;;;;;;5055834;28;20067;-93
2021/09/14 13:28:19;;;;;;;7.40;3.92;;;25.50;99.90;;;;;;5055298;28;20483;-94
2021/09/14 13:30:45;;;;;;;10.23;4.10;;;25.60;99.90;;;;;;5072194;28;20044;-93
2021/09/14 13:33:11;;;;;;;6.32;4.10;;;25.60;99.90;;;;;;5071232;28;20046;-95
2021/09/14 13:35:37;;;;;;;6.28;4.88;;;25.60;99.90;;;;;;5105752;28;20051;-92
2021/09/14 13:38:03;;;;;;;11.00;4.80;;;25.70;99.90;;;;;;5072091;28;20113;-94
2021/09/14 13:40:29;;;;;;;6.00;4.47;;;25.60;99.90;;;;;;5055749;28;20128;-92
2021/09/14 13:42:59;;;;;;;8.50;4.50;;;25.60;99.90;;;;;;5088042;28;20479;-93
2021/09/14 13:48:09;;;;;;;6.38;4.60;;;25.40;99.90;;;;;;5108261;28;20044;-95